Time;durP1;ratioP1;P1;durP2;ratioP2;P2;SDS_P1;SDS_P2;PMS_P1;PMS_P2;Temp;Humidity;BMP_temperature;BMP_pressure;BME280_temperature;BME280_humidity;BME280_pressure;Samples;Min_cycle;Max_cycle;Signal;HPM_P1;HPM_P2
2023/01/30 00:00:51;;;;;;;18.80;10.80;;;;;;;-3.94;88.25;96074.28;5065812;28;20209;-78
2023/01/30 00:03:17;;;;;;;17.77;10.60;;;;;;;-3.84;88.38;96070.56;5049144;28;20200;-77
2023/01/30 00:05:42;;;;;;;18.17;9.87;;;;;;;-3.85;88.08;96067.22;5047968;28;20186;-77
2023/01/30 00:08:07;;;;;;;16.33;10.17;;;;;;;-3.86;87.88;96063.03;5048696;28;20190;-78
2023/01/30 00:10:33;;;;;;;19.27;10.80;;;;;;;-3.87;87.74;96063.91;5053130;28;20218;-78
2023/01/30 00:12:58;;;;;;;18.47;11.10;;;;;;;-3.86;88.50;96057.13;5042696;28;20182;-78
2023/01/30 00:15:23;;;;;;;19.20;10.67;;;;;;;-3.87;88.02;96050.38;5065272;28;20193;-77
2023/01/30 00:17:48;;;;;;;22.50;12.43;;;;;;;-3.85;88.04;96057.06;5070230;28;20182;-76
2023/01/30 00:20:14;;;;;;;20.67;11.67;;;;;;;-3.80;89.01;96057.75;5067990;28;20233;-77
2023/01/30 00:22:39;;;;;;;20.83;11.63;;;;;;;-3.75;88.94;96071.13;5055617;28;20266;-78
2023/01/30 00:25:05;;;;;;;19.27;11.60;;;;;;;-3.64;88.88;96053.00;5051179;28;20182;-79
2023/01/30 00:27:30;;;;;;;18.30;11.57;;;;;;;-3.60;88.68;96048.66;5054716;28;20210;-78
2023/01/30 00:29:56;;;;;;;17.03;10.80;;;;;;;-3.60;88.50;96035.97;5066204;28;20621;-79
2023/01/30 00:32:22;;;;;;;18.30;10.53;;;;;;;-3.62;87.96;96032.63;5050260;28;20224;-79
2023/01/30 00:34:47;;;;;;;17.67;10.97;;;;;;;-3.69;87.40;96032.03;5066810;28;20186;-78
2023/01/30 00:37:13;;;;;;;18.47;10.70;;;;;;;-3.65;88.27;96035.28;5049599;28;20296;-79
2023/01/30 00:39:38;;;;;;;17.23;11.07;;;;;;;-3.60;88.47;96049.50;5053475;28;20207;-79
2023/01/30 00:47:32;;;;;;;24.30;12.87;;;;;;;-3.54;88.14;96061.13;5053221;28;20201;-78
2023/01/30 00:49:57;;;;;;;18.77;11.23;;;;;;;-3.58;87.86;96078.19;5058624;28;20182;-79
2023/01/30 00:52:22;;;;;;;20.07;12.20;;;;;;;-3.66;87.41;96092.00;5061734;28;20261;-79
2023/01/30 00:54:50;;;;;;;19.10;11.03;;;;;;;-3.62;88.79;96108.78;5056969;28;20192;-78
2023/01/30 00:57:15;;;;;;;19.10;12.33;;;;;;;-3.55;88.01;96117.88;5050510;28;20182;-79
2023/01/30 00:59:40;;;;;;;16.33;11.20;;;;;;;-3.57;87.84;96129.78;5047075;28;20206;-77
2023/01/30 01:02:06;;;;;;;20.33;12.23;;;;;;;-3.62;88.59;96113.88;5054671;28;20198;-77
2023/01/30 01:04:41;;;;;;;17.93;10.97;;;;;;;-3.58;88.41;96107.81;5054253;28;20194;-78
2023/01/30 01:07:07;;;;;;;18.53;11.53;;;;;;;-3.58;88.50;96101.03;5051528;28;20197;-79
2023/01/30 01:09:32;;;;;;;16.97;11.07;;;;;;;-3.51;88.63;96104.22;5043379;28;20214;-76
2023/01/30 01:11:58;;;;;;;18.17;11.43;;;;;;;-3.60;89.33;96112.97;5055528;28;20285;-78
2023/01/30 01:14:23;;;;;;;19.93;12.10;;;;;;;-3.46;89.60;96112.50;5047369;28;20561;-79
2023/01/30 01:16:48;;;;;;;17.37;12.17;;;;;;;-3.34;89.14;96101.97;5041567;28;20228;-76
2023/01/30 01:19:14;;;;;;;19.80;12.63;;;;;;;-3.38;89.15;96099.56;5060342;28;20194;-78
2023/01/30 01:21:39;;;;;;;18.60;12.20;;;;;;;-3.36;89.40;96102.88;5051320;28;20206;-77
2023/01/30 01:24:05;;;;;;;20.87;12.13;;;;;;;-3.30;89.41;96107.75;5046703;28;20195;-77
2023/01/30 01:26:30;;;;;;;22.17;13.43;;;;;;;-3.31;89.82;96106.09;5057825;28;20212;-78
2023/01/30 01:28:56;;;;;;;19.40;12.83;;;;;;;-3.37;89.57;96091.06;5046050;28;20186;-78
2023/01/30 01:31:23;;;;;;;21.10;13.90;;;;;;;-3.31;90.15;96099.31;5050046;28;20270;-78
2023/01/30 01:33:48;;;;;;;20.87;13.93;;;;;;;-3.29;90.70;96096.72;5046516;28;20179;-78
2023/01/30 01:36:13;;;;;;;26.83;14.43;;;;;;;-3.24;90.11;96103.31;5045199;28;20175;-77
2023/01/30 01:38:41;;;;;;;20.83;13.30;;;;;;;-3.24;90.06;96107.56;5050385;28;20194;-77
2023/01/30 01:41:08;;;;;;;18.87;13.07;;;;;;;-3.13;90.53;96118.19;5063362;28;20711;-77
2023/01/30 01:44:09;;;;;;;20.97;13.10;;;;;;;-3.11;90.29;96124.06;5060411;28;20182;-78
2023/01/30 01:46:54;;;;;;;19.53;13.47;;;;;;;-3.10;91.21;96072.34;5060239;28;20206;-78
2023/01/30 01:49:23;;;;;;;22.57;13.87;;;;;;;-3.07;91.30;96076.53;5043693;28;20186;-79
2023/01/30 01:51:53;;;;;;;21.37;13.63;;;;;;;-3.01;91.26;96081.38;5045894;28;20252;-78
2023/01/30 01:54:31;;;;;;;22.67;14.57;;;;;;;-2.98;91.42;96107.53;5041380;28;20184;-77
2023/01/30 01:56:59;;;;;;;22.13;13.20;;;;;;;-2.89;91.61;96091.13;5047847;28;20184;-78
2023/01/30 01:59:29;;;;;;;22.90;14.20;;;;;;;-2.90;91.66;96090.31;5044211;28;20193;-78
2023/01/30 02:01:57;;;;;;;25.43;15.07;;;;;;;-2.92;92.20;96091.22;5051119;28;20255;-78
2023/01/30 02:05:00;;;;;;;20.90;14.53;;;;;;;-2.80;91.88;96092.53;5035408;28;20197;-78
2023/01/30 02:07:09;;;;;;;23.67;14.53;;;;;;;-2.89;92.51;96086.88;5059152;28;20213;-77
2023/01/30 02:09:35;;;;;;;25.83;14.87;;;;;;;-2.78;91.88;96081.41;5041689;28;20185;-78
2023/01/30 02:12:02;;;;;;;21.57;14.43;;;;;;;-2.73;91.61;96059.22;5060625;28;20202;-79
2023/01/30 02:14:28;;;;;;;19.27;13.67;;;;;;;-2.88;91.33;96055.50;5047241;28;20186;-79
2023/01/30 02:16:53;;;;;;;21.53;14.77;;;;;;;-2.97;92.65;96065.16;5043494;28;20189;-78
2023/01/30 02:19:26;;;;;;;20.87;14.23;;;;;;;-2.90;92.41;96058.97;5049902;28;20180;-78
2023/01/30 02:22:12;;;;;;;21.17;13.77;;;;;;;-2.90;91.89;96061.53;5056425;28;20216;-78
2023/01/30 02:25:08;;;;;;;23.10;14.83;;;;;;;-2.85;91.90;96078.25;5061776;28;20826;-79
2023/01/30 02:28:10;;;;;;;19.10;13.30;;;;;;;-2.82;91.52;96079.03;5057403;28;20212;-79
2023/01/30 02:31:00;;;;;;;20.03;13.63;;;;;;;-2.88;91.62;96054.66;5035761;28;20213;-77
2023/01/30 02:33:50;;;;;;;20.07;13.40;;;;;;;-3.02;91.24;96042.44;5060858;28;20179;-78
2023/01/30 02:36:41;;;;;;;18.77;11.73;;;;;;;-3.20;92.23;96018.50;5058983;28;20185;-77
2023/01/30 02:39:13;;;;;;;22.83;13.53;;;;;;;-3.07;90.64;96028.25;5038749;28;20197;-78
2023/01/30 02:41:49;;;;;;;21.47;13.33;;;;;;;-3.03;89.37;96020.44;5060905;28;20230;-78
2023/01/30 02:44:47;;;;;;;20.37;12.93;;;;;;;-2.99;88.25;96006.75;5040766;28;20189;-77
2023/01/30 02:47:16;;;;;;;19.17;12.20;;;;;;;-3.06;88.42;96007.03;5028457;28;20713;-78
2023/01/30 02:49:47;;;;;;;20.17;12.50;;;;;;;-2.91;87.00;96001.41;5043254;28;20662;-78
2023/01/30 02:52:13;;;;;;;15.63;11.23;;;;;;;-2.80;85.75;96008.63;5042927;28;20222;-78
2023/01/30 02:54:38;;;;;;;17.20;11.37;;;;;;;-2.74;84.82;96006.72;5048963;28;20189;-78
2023/01/30 02:57:16;;;;;;;19.10;11.80;;;;;;;-2.87;83.93;95998.69;5045607;28;20557;-78
2023/01/30 02:59:44;;;;;;;14.80;9.90;;;;;;;-2.79;83.10;95989.97;5030367;28;20209;-78
2023/01/30 03:02:35;;;;;;;16.17;10.73;;;;;;;-2.54;82.48;95985.63;5036785;28;20298;-78
2023/01/30 03:05:15;;;;;;;15.23;9.87;;;;;;;-2.57;83.10;95968.75;5060123;28;20183;-77
2023/01/30 03:08:08;;;;;;;14.60;9.90;;;;;;;-2.66;84.10;95956.38;5044631;28;20201;-78
2023/01/30 03:10:42;;;;;;;14.80;9.57;;;;;;;-2.60;83.84;95929.91;5047205;28;20206;-76
2023/01/30 03:13:19;;;;;;;16.33;9.77;;;;;;;-2.64;84.27;95928.38;5048785;28;20205;-79
2023/01/30 03:15:50;;;;;;;13.83;9.13;;;;;;;-2.71;84.57;95924.41;5044492;28;20638;-77
2023/01/30 03:18:17;;;;;;;11.90;8.30;;;;;;;-2.54;83.68;95891.53;5048748;28;20186;-78
2023/01/30 03:20:42;;;;;;;10.43;7.57;;;;;;;-2.45;83.48;95878.47;5047458;28;20210;-78
2023/01/30 03:23:08;;;;;;;13.47;8.93;;;;;;;-2.44;83.31;95876.75;5050704;28;20190;-77
2023/01/30 03:25:36;;;;;;;10.87;7.83;;;;;;;-2.33;83.36;95859.31;5060152;28;20200;-76
2023/01/30 03:28:02;;;;;;;12.83;8.57;;;;;;;-2.36;83.69;95849.28;5059426;28;20567;-78
2023/01/30 03:30:28;;;;;;;13.27;8.40;;;;;;;-2.35;83.72;95866.19;5051446;28;20216;-79
2023/01/30 03:32:53;;;;;;;14.43;8.83;;;;;;;-2.41;84.79;95879.16;5067615;28;20179;-79
2023/01/30 03:35:19;;;;;;;14.10;9.47;;;;;;;-2.45;84.73;95910.69;5049924;28;20217;-78
2023/01/30 03:37:44;;;;;;;14.37;9.57;;;;;;;-2.41;84.99;95913.03;5057912;28;20187;-78
2023/01/30 03:40:11;;;;;;;14.63;9.63;;;;;;;-2.37;84.88;95916.31;5052600;28;20205;-79
2023/01/30 03:42:36;;;;;;;16.57;9.63;;;;;;;-2.35;84.63;95933.16;5053753;28;20250;-80
2023/01/30 03:45:02;;;;;;;16.30;9.87;;;;;;;-2.38;85.08;95927.38;5064370;28;20242;-77
2023/01/30 03:47:27;;;;;;;14.83;9.03;;;;;;;-2.13;83.57;95948.38;5037361;28;20210;-78
2023/01/30 03:49:52;;;;;;;13.87;8.77;;;;;;;-2.15;83.72;95932.34;5048721;28;20189;-80
2023/01/30 03:52:18;;;;;;;12.83;9.13;;;;;;;-2.41;84.30;95935.09;5052566;28;20206;-79
2023/01/30 03:54:43;;;;;;;15.80;9.33;;;;;;;-2.42;83.83;95934.28;5057211;28;20187;-78
2023/01/30 03:57:08;;;;;;;14.23;9.00;;;;;;;-2.49;84.60;95932.03;5048728;28;20193;-78
2023/01/30 03:59:34;;;;;;;13.70;8.90;;;;;;;-2.45;84.59;95936.94;5064128;28;20193;-77
2023/01/30 04:01:59;;;;;;;12.00;8.47;;;;;;;-2.60;84.91;95951.06;5047778;28;20202;-79
2023/01/30 04:04:24;;;;;;;14.97;9.73;;;;;;;-2.50;85.06;95954.09;5047664;28;20193;-77
2023/01/30 04:06:50;;;;;;;17.27;10.43;;;;;;;-2.48;84.28;95956.56;5051564;28;20236;-78
2023/01/30 04:09:15;;;;;;;13.00;8.67;;;;;;;-2.45;84.28;95959.00;5059387;28;20178;-76
2023/01/30 04:11:40;;;;;;;12.73;9.30;;;;;;;-2.46;84.49;95937.84;5058392;28;20213;-76
2023/01/30 04:14:05;;;;;;;13.27;9.23;;;;;;;-2.53;84.53;95938.13;5056369;28;20180;-77
2023/01/30 04:16:31;;;;;;;12.70;8.37;;;;;;;-2.39;84.15;95948.59;5055626;28;20182;-79
2023/01/30 04:18:56;;;;;;;13.67;8.57;;;;;;;-2.45;85.03;95936.94;5057831;28;20192;-79
2023/01/30 04:21:21;;;;;;;12.87;8.70;;;;;;;-2.49;85.08;95945.56;5062414;28;20238;-79
2023/01/30 04:23:47;;;;;;;12.67;8.87;;;;;;;-2.47;85.51;95948.91;5051891;28;20189;-79
2023/01/30 04:26:12;;;;;;;13.87;9.07;;;;;;;-2.36;84.85;95940.84;5061532;28;20203;-78
2023/01/30 04:28:38;;;;;;;13.43;8.90;;;;;;;-2.34;85.39;95929.72;5057398;28;20185;-77
2023/01/30 04:31:04;;;;;;;14.60;8.53;;;;;;;-2.33;85.77;95933.91;5038002;28;20232;-76
2023/01/30 04:33:29;;;;;;;12.37;8.07;;;;;;;-2.27;85.90;95925.22;5045617;28;20241;-78
2023/01/30 04:35:58;;;;;;;12.83;8.30;;;;;;;-2.34;86.33;95923.81;5044060;28;20186;-77
2023/01/30 04:38:25;;;;;;;13.37;7.97;;;;;;;-2.40;86.19;95924.03;5050528;28;20199;-76
2023/01/30 04:40:51;;;;;;;13.23;8.20;;;;;;;-2.28;86.37;95923.56;5048438;28;20212;-77
2023/01/30 04:43:17;;;;;;;10.47;7.70;;;;;;;-2.25;87.05;95922.63;5045381;28;20177;-79
2023/01/30 04:45:46;;;;;;;12.70;8.37;;;;;;;-2.03;85.84;95926.78;5035490;28;20186;-79
2023/01/30 04:48:12;;;;;;;11.47;7.43;;;;;;;-1.94;85.21;95938.31;5029638;28;20531;-80
2023/01/30 04:50:38;;;;;;;11.77;7.80;;;;;;;-1.84;85.25;95947.22;5042706;28;20265;-79
2023/01/30 04:53:03;;;;;;;12.37;8.40;;;;;;;-1.98;87.38;95938.50;5048966;28;20553;-77
2023/01/30 04:55:28;;;;;;;11.10;7.70;;;;;;;-1.98;88.37;95933.41;5042029;28;20184;-78
2023/01/30 04:57:54;;;;;;;9.93;6.63;;;;;;;-1.89;88.69;95933.03;5036046;28;20182;-78
2023/01/30 05:00:19;;;;;;;10.83;6.70;;;;;;;-1.98;89.24;95918.94;5042406;28;20182;-78
2023/01/30 05:02:44;;;;;;;8.63;5.80;;;;;;;-1.75;89.50;95910.38;5061343;28;20187;-77
2023/01/30 05:05:10;;;;;;;8.37;5.30;;;;;;;-1.63;88.45;95909.84;5057768;28;20197;-78
2023/01/30 05:07:35;;;;;;;10.10;5.60;;;;;;;-1.70;90.52;95903.34;5044323;28;20213;-79
2023/01/30 05:10:01;;;;;;;8.83;5.20;;;;;;;-1.64;92.52;95903.09;5055889;28;20188;-78
2023/01/30 05:12:27;;;;;;;7.47;5.17;;;;;;;-1.46;91.03;95894.66;5042346;28;20202;-77
2023/01/30 05:14:52;;;;;;;6.37;4.70;;;;;;;-1.40;90.92;95882.56;5048170;28;20244;-78
2023/01/30 05:17:17;;;;;;;4.07;3.40;;;;;;;-1.34;94.25;95883.09;5052572;28;20219;-77
2023/01/30 05:19:43;;;;;;;3.97;2.80;;;;;;;-1.17;96.24;95878.09;5039690;28;20208;-78
2023/01/30 05:22:08;;;;;;;3.33;2.30;;;;;;;-0.99;96.68;95889.19;5058884;28;20209;-79
2023/01/30 05:24:33;;;;;;;3.00;2.40;;;;;;;-0.78;97.73;95891.66;5038790;28;20190;-79
2023/01/30 05:26:59;;;;;;;3.10;2.33;;;;;;;-0.70;96.86;95884.50;5046732;28;20212;-78
2023/01/30 05:29:24;;;;;;;3.03;2.50;;;;;;;-0.63;96.54;95890.94;5042476;28;20201;-81
2023/01/30 05:31:49;;;;;;;4.17;2.73;;;;;;;-0.52;94.49;95888.72;5042468;28;20243;-78
2023/01/30 05:34:14;;;;;;;3.97;2.97;;;;;;;-0.74;94.90;95883.78;5041163;28;20566;-78
2023/01/30 05:36:40;;;;;;;5.33;4.03;;;;;;;-0.72;94.68;95887.09;5051874;28;20270;-81
2023/01/30 05:39:05;;;;;;;8.53;5.43;;;;;;;-0.77;94.23;95893.31;5052932;28;20201;-77
2023/01/30 05:41:30;;;;;;;7.57;5.60;;;;;;;-0.80;94.49;95883.25;5055085;28;20216;-77
2023/01/30 05:43:56;;;;;;;10.87;6.83;;;;;;;-0.71;93.75;95886.19;5045600;28;20204;-77
2023/01/30 05:46:21;;;;;;;8.27;5.70;;;;;;;-0.77;93.23;95888.22;5041742;28;20202;-79
2023/01/30 05:48:46;;;;;;;4.97;4.00;;;;;;;-0.81;93.52;95892.63;5042669;28;20272;-78
2023/01/30 05:51:17;;;;;;;7.87;5.17;;;;;;;-0.84;93.57;95897.03;5041307;28;20214;-77
2023/01/30 05:53:42;;;;;;;8.40;7.13;;;;;;;-0.89;92.65;95885.31;5039763;28;20197;-78
2023/01/30 05:56:08;;;;;;;9.57;7.73;;;;;;;-0.99;92.96;95884.09;5038290;28;20193;-79
2023/01/30 05:58:33;;;;;;;10.50;8.70;;;;;;;-1.01;93.00;95878.22;5041874;28;20180;-78
2023/01/30 06:01:00;;;;;;;11.83;9.07;;;;;;;-1.18;93.03;95862.88;5048748;28;20208;-77
2023/01/30 06:03:25;;;;;;;9.43;7.57;;;;;;;-1.18;93.03;95868.78;5039509;28;20276;-78
2023/01/30 06:05:51;;;;;;;9.20;7.33;;;;;;;-1.19;92.84;95859.50;5056994;28;20283;-77
2023/01/30 06:08:16;;;;;;;8.07;6.20;;;;;;;-1.13;93.56;95860.97;5041213;28;20561;-77
2023/01/30 06:10:41;;;;;;;9.17;4.97;;;;;;;-1.11;93.98;95858.34;5036613;28;20206;-78
2023/01/30 06:13:09;;;;;;;6.43;4.80;;;;;;;-1.04;95.98;95840.16;5045638;28;20186;-79
2023/01/30 06:15:35;;;;;;;4.63;3.23;;;;;;;-0.92;96.36;95846.41;5044454;28;20213;-79
2023/01/30 06:18:00;;;;;;;5.07;3.20;;;;;;;-0.79;96.63;95846.66;5047089;28;20193;-80
2023/01/30 06:20:25;;;;;;;5.57;3.93;;;;;;;-0.70;96.51;95854.72;5050300;28;20213;-79
2023/01/30 06:22:50;;;;;;;4.00;3.10;;;;;;;-0.63;97.18;95855.22;5034707;28;20186;-78
2023/01/30 06:25:16;;;;;;;7.87;5.67;;;;;;;-0.54;95.24;95857.34;5040318;28;20596;-78
2023/01/30 06:27:42;;;;;;;9.37;5.53;;;;;;;-0.55;95.11;95858.25;5033843;28;20669;-79
2023/01/30 06:30:08;;;;;;;6.33;4.30;;;;;;;-0.58;95.89;95832.88;5049539;28;20188;-77
2023/01/30 06:32:33;;;;;;;4.93;3.67;;;;;;;-0.62;96.50;95842.44;5040734;28;20188;-78
2023/01/30 06:34:59;;;;;;;6.23;4.00;;;;;;;-0.58;96.52;95827.78;5045386;28;20185;-77
2023/01/30 06:37:24;;;;;;;4.83;3.17;;;;;;;-0.53;98.18;95822.44;5061115;28;20188;-78
2023/01/30 06:39:49;;;;;;;6.67;3.63;;;;;;;-0.40;97.07;95831.19;5062477;28;20254;-77
2023/01/30 06:42:14;;;;;;;3.80;2.83;;;;;;;-0.23;96.82;95838.03;5060819;28;20532;-78
2023/01/30 06:44:40;;;;;;;5.43;3.97;;;;;;;-0.17;95.72;95850.50;5046727;28;20204;-78
2023/01/30 06:47:05;;;;;;;4.77;3.20;;;;;;;-0.15;97.31;95841.03;5047033;28;20206;-77
2023/01/30 06:49:30;;;;;;;2.87;2.50;;;;;;;-0.03;97.86;95832.75;5047478;28;20192;-79
2023/01/30 06:51:55;;;;;;;2.43;1.73;;;;;;;0.10;97.83;95828.69;5058334;28;20232;-78
2023/01/30 06:54:21;;;;;;;2.63;2.27;;;;;;;0.15;96.58;95838.66;5046038;28;20204;-77
2023/01/30 06:56:46;;;;;;;10.53;5.63;;;;;;;0.14;97.34;95842.94;5052730;28;20194;-77
2023/01/30 06:59:11;;;;;;;8.07;4.10;;;;;;;0.21;96.89;95836.63;5045406;28;20194;-78
2023/01/30 07:01:37;;;;;;;6.37;3.77;;;;;;;0.28;96.54;95839.69;5049827;28;20220;-76
2023/01/30 07:04:02;;;;;;;6.80;4.07;;;;;;;0.32;97.55;95846.28;5043411;28;20681;-79
2023/01/30 07:06:28;;;;;;;2.00;1.80;;;;;;;0.44;97.13;95843.13;5041526;28;20678;-77
2023/01/30 07:08:56;;;;;;;2.33;1.50;;;;;;;0.57;96.23;95848.41;5059447;28;20692;-78
2023/01/30 07:11:21;;;;;;;2.20;1.70;;;;;;;0.53;95.75;95849.47;5053900;28;20684;-78
2023/01/30 07:13:46;;;;;;;1.60;1.23;;;;;;;0.56;96.97;95862.91;5045985;28;20231;-78
2023/01/30 07:16:12;;;;;;;1.63;1.53;;;;;;;0.56;96.56;95862.09;5045604;28;20200;-79
2023/01/30 07:18:37;;;;;;;1.87;1.60;;;;;;;0.64;96.17;95867.63;5044421;28;20193;-78
2023/01/30 07:21:02;;;;;;;1.97;1.50;;;;;;;0.72;96.24;95885.97;5048420;28;20424;-78
2023/01/30 07:23:28;;;;;;;1.70;1.60;;;;;;;0.78;96.06;95883.06;5042225;28;20533;-77
2023/01/30 07:25:54;;;;;;;2.70;1.90;;;;;;;0.87;95.10;95886.88;5045715;28;20193;-79
2023/01/30 07:28:19;;;;;;;2.43;1.70;;;;;;;1.05;94.52;95890.19;5057030;28;20248;-77
2023/01/30 07:30:44;;;;;;;2.43;1.60;;;;;;;1.09;93.75;95889.97;5051405;28;20225;-77
2023/01/30 07:33:10;;;;;;;2.93;2.17;;;;;;;0.98;95.06;95901.69;5057729;28;20675;-77
2023/01/30 07:35:36;;;;;;;4.27;2.67;;;;;;;0.87;95.56;95901.38;5041778;28;20186;-78
2023/01/30 07:38:02;;;;;;;8.17;3.93;;;;;;;0.92;94.85;95889.19;5051839;28;20178;-76
2023/01/30 07:40:28;;;;;;;2.77;2.10;;;;;;;0.91;95.28;95900.34;5038774;28;20205;-76
2023/01/30 07:43:00;;;;;;;1.93;1.60;;;;;;;0.95;95.64;95906.94;5042855;28;20639;-79
2023/01/30 07:45:28;;;;;;;2.43;1.80;;;;;;;0.97;94.86;95915.34;5034857;28;20281;-77
2023/01/30 07:47:53;;;;;;;2.47;2.17;;;;;;;1.11;93.23;95910.34;5056459;28;20229;-77
2023/01/30 07:50:18;;;;;;;3.90;2.40;;;;;;;1.09;93.66;95907.03;5056707;28;20213;-77
2023/01/30 07:52:44;;;;;;;9.70;4.50;;;;;;;0.99;94.32;95918.66;5040854;28;20186;-77
2023/01/30 07:55:09;;;;;;;4.77;2.90;;;;;;;0.95;95.34;95900.09;5038611;28;20651;-77
2023/01/30 07:57:34;;;;;;;6.53;4.67;;;;;;;1.10;95.00;95891.59;5024840;28;20178;-77
2023/01/30 08:00:00;;;;;;;5.13;2.77;;;;;;;1.07;95.31;95891.78;5054269;28;20190;-79
2023/01/30 08:02:25;;;;;;;3.80;2.30;;;;;;;1.07;95.45;95880.72;5055503;28;20210;-78
2023/01/30 08:04:50;;;;;;;4.33;3.13;;;;;;;1.10;95.57;95901.00;5062481;28;20182;-78
2023/01/30 08:07:15;;;;;;;2.67;2.10;;;;;;;1.07;96.65;95891.78;5045356;28;20701;-77
2023/01/30 08:09:41;;;;;;;2.23;1.83;;;;;;;1.02;96.01;95903.97;5054634;28;20190;-78
2023/01/30 08:12:06;;;;;;;2.30;2.03;;;;;;;1.22;94.29;95908.03;5049302;28;20217;-77
2023/01/30 08:14:31;;;;;;;1.57;1.40;;;;;;;1.03;95.78;95913.28;5067166;28;20808;-77
2023/01/30 08:16:57;;;;;;;2.33;1.90;;;;;;;1.25;94.51;95904.50;5059349;28;20647;-78
2023/01/30 08:19:22;;;;;;;1.90;1.67;;;;;;;0.99;95.23;95895.66;5049308;28;20186;-77
2023/01/30 08:21:47;;;;;;;1.40;1.30;;;;;;;1.29;94.26;95881.22;5054767;28;20202;-77
2023/01/30 08:24:13;;;;;;;1.30;1.13;;;;;;;1.13;94.39;95870.16;5063597;28;20178;-78
2023/01/30 08:26:38;;;;;;;1.00;0.90;;;;;;;1.22;94.93;95864.53;5062064;28;20249;-78
2023/01/30 08:29:03;;;;;;;3.97;2.70;;;;;;;1.40;92.52;95857.59;5062037;28;20184;-78
2023/01/30 08:31:29;;;;;;;3.43;2.30;;;;;;;1.31;93.05;95869.16;5044664;28;20210;-77
2023/01/30 08:33:54;;;;;;;2.00;1.80;;;;;;;1.66;90.50;95869.75;5050170;28;20178;-78
2023/01/30 08:36:19;;;;;;;1.33;1.20;;;;;;;1.56;90.89;95868.63;5047083;28;20174;-76
2023/01/30 08:38:44;;;;;;;2.20;2.00;;;;;;;1.53;91.09;95856.00;5057550;28;20198;-78
2023/01/30 08:41:10;;;;;;;2.43;2.20;;;;;;;1.83;90.02;95873.94;5039491;28;20210;-76
2023/01/30 08:43:35;;;;;;;1.60;1.47;;;;;;;2.02;88.89;95875.47;5056812;28;20197;-76
2023/01/30 08:46:01;;;;;;;1.60;1.50;;;;;;;2.04;88.08;95861.66;5056387;28;20186;-77
2023/01/30 08:48:26;;;;;;;1.73;1.60;;;;;;;2.03;89.15;95861.72;5046975;28;20272;-79
2023/01/30 08:50:53;;;;;;;1.17;1.07;;;;;;;2.14;88.09;95869.66;5046954;28;20233;-79
2023/01/30 08:53:18;;;;;;;1.30;1.10;;;;;;;2.57;86.17;95879.97;5055873;28;20213;-77
2023/01/30 08:55:44;;;;;;;1.10;1.00;;;;;;;2.48;86.27;95859.06;5047568;28;20649;-79
2023/01/30 08:58:09;;;;;;;1.20;1.10;;;;;;;2.34;87.02;95859.06;5045915;28;20253;-78
2023/01/30 09:00:35;;;;;;;8.93;1.97;;;;;;;2.49;86.06;95835.09;5044267;28;20214;-78
2023/01/30 09:03:01;;;;;;;6.33;2.97;;;;;;;2.46;86.52;95819.88;5045202;28;20226;-78
2023/01/30 09:05:28;;;;;;;1.40;1.30;;;;;;;2.58;85.88;95813.19;5063888;28;20201;-78
2023/01/30 09:07:53;;;;;;;1.43;1.33;;;;;;;2.63;84.87;95815.47;5043002;28;20202;-77
2023/01/30 09:10:19;;;;;;;1.33;1.23;;;;;;;2.54;86.08;95830.50;5046086;28;20213;-78
2023/01/30 09:12:45;;;;;;;0.87;0.87;;;;;;;1.99;88.78;95809.88;5042514;28;20187;-77
2023/01/30 09:15:10;;;;;;;1.47;1.37;;;;;;;2.10;89.03;95817.75;5026666;28;20649;-77
2023/01/30 09:17:37;;;;;;;4.53;1.90;;;;;;;2.38;87.52;95832.31;5041956;28;20194;-77
2023/01/30 09:20:04;;;;;;;2.17;1.17;;;;;;;2.23;88.97;95828.94;5054128;28;20185;-76
2023/01/30 09:22:30;;;;;;;1.93;1.20;;;;;;;2.56;86.60;95827.81;5052053;28;20186;-77
2023/01/30 09:24:55;;;;;;;2.20;1.90;;;;;;;2.44;87.75;95842.22;5049535;28;20209;-78
2023/01/30 09:27:20;;;;;;;1.27;1.10;;;;;;;2.33;88.07;95836.09;5043992;28;20678;-77
2023/01/30 09:29:46;;;;;;;2.20;2.00;;;;;;;2.48;87.16;95838.56;5042203;28;20212;-78
2023/01/30 09:32:11;;;;;;;1.73;1.60;;;;;;;2.67;86.92;95842.59;5045127;28;20213;-78
2023/01/30 09:34:36;;;;;;;1.93;1.43;;;;;;;2.37;88.27;95820.41;5042888;28;20551;-76
2023/01/30 09:37:03;;;;;;;1.03;0.93;;;;;;;2.17;90.09;95825.91;5039193;28;20175;-76
2023/01/30 09:39:28;;;;;;;1.13;1.00;;;;;;;2.20;90.26;95831.66;5048499;28;20183;-78
2023/01/30 09:42:03;;;;;;;1.90;1.20;;;;;;;2.51;88.42;95843.50;5030347;28;20210;-78
2023/01/30 09:44:52;;;;;;;1.70;1.50;;;;;;;2.40;88.91;95842.50;5051600;28;20404;-77
2023/01/30 09:47:27;;;;;;;1.40;1.30;;;;;;;2.79;86.54;95837.53;5058406;28;20609;-77
2023/01/30 09:50:29;;;;;;;2.33;0.90;;;;;;;2.39;89.70;95818.63;5056443;28;20177;-77
2023/01/30 09:53:05;;;;;;;1.00;0.90;;;;;;;2.60;88.95;95820.78;5057824;28;20189;-76
2023/01/30 09:55:32;;;;;;;1.37;1.10;;;;;;;2.63;88.43;95810.34;5045516;28;20193;-77
2023/01/30 09:57:58;;;;;;;1.10;1.00;;;;;;;2.40;89.01;95812.56;5047397;28;20233;-78
2023/01/30 10:00:38;;;;;;;0.90;0.90;;;;;;;2.59;89.34;95794.34;5041170;28;20182;-77
2023/01/30 10:03:10;;;;;;;1.20;1.10;;;;;;;2.62;89.23;95789.00;5046307;28;20204;-77
2023/01/30 10:05:43;;;;;;;1.03;0.93;;;;;;;2.49;90.40;95809.44;5023297;28;20202;-76
2023/01/30 10:08:33;;;;;;;1.20;1.10;;;;;;;2.71;89.61;95808.97;5061350;28;20198;-77
2023/01/30 10:11:15;;;;;;;4.47;3.43;;;;;;;2.36;92.35;95803.41;5062596;28;20205;-76
2023/01/30 10:13:53;;;;;;;2.90;2.10;;;;;;;2.64;90.41;95812.00;5031578;28;20269;-77
2023/01/30 10:16:29;;;;;;;6.97;1.40;;;;;;;2.43;90.35;95807.25;5055248;28;20592;-77
2023/01/30 10:19:36;;;;;;;1.37;1.20;;;;;;;2.72;89.98;95802.09;5031272;28;20185;-77
2023/01/30 10:22:34;;;;;;;1.23;1.13;;;;;;;2.78;89.62;95791.47;5050786;28;20760;-77
2023/01/30 10:25:18;;;;;;;1.63;1.13;;;;;;;2.71;89.20;95800.44;5047306;28;20182;-76
2023/01/30 10:27:54;;;;;;;1.47;1.10;;;;;;;2.59;90.38;95796.06;5050495;28;20319;-77
2023/01/30 10:30:20;;;;;;;0.60;0.60;;;;;;;2.79;88.73;95804.19;5055749;28;20515;-77
2023/01/30 10:32:52;;;;;;;1.83;1.20;;;;;;;2.95;88.52;95798.13;5038994;28;20183;-78
2023/01/30 10:35:20;;;;;;;0.80;0.80;;;;;;;2.82;88.79;95780.09;5040502;28;20709;-77
2023/01/30 10:37:52;;;;;;;11.43;5.67;;;;;;;2.82;88.28;95774.97;5052658;28;20242;-77
2023/01/30 10:40:55;;;;;;;3.10;1.70;;;;;;;2.48;89.28;95777.03;5046956;28;20236;-76
2023/01/30 10:43:35;;;;;;;1.90;1.40;;;;;;;2.93;87.38;95772.56;5050816;28;20179;-77
2023/01/30 10:46:03;;;;;;;9.07;2.43;;;;;;;2.87;87.15;95755.00;5037730;28;20200;-75
2023/01/30 10:49:01;;;;;;;2.90;1.97;;;;;;;2.98;87.05;95760.25;5055736;28;20221;-77
2023/01/30 10:51:48;;;;;;;2.47;1.73;;;;;;;3.10;86.11;95758.69;5045790;28;20194;-77
2023/01/30 10:54:19;;;;;;;1.20;1.10;;;;;;;3.00;86.83;95758.41;5053944;28;20242;-76
2023/01/30 10:57:03;;;;;;;5.30;3.53;;;;;;;2.91;87.07;95771.00;5058899;28;20178;-77
2023/01/30 10:59:50;;;;;;;3.83;2.30;;;;;;;2.95;87.81;95745.06;5051425;28;20269;-77
2023/01/30 11:02:23;;;;;;;1.13;1.00;;;;;;;3.03;87.73;95745.41;5052057;28;20206;-77
2023/01/30 11:05:00;;;;;;;3.30;1.53;;;;;;;3.18;86.60;95746.19;5049439;28;20182;-77
2023/01/30 11:07:32;;;;;;;3.27;1.10;;;;;;;3.31;86.16;95771.88;5037945;28;20694;-77
2023/01/30 11:09:58;;;;;;;1.53;1.10;;;;;;;2.97;87.33;95761.19;5031759;28;20183;-77
2023/01/30 11:12:23;;;;;;;1.13;0.93;;;;;;;3.20;86.76;95764.06;5042397;28;20198;-78
2023/01/30 11:14:51;;;;;;;1.00;0.87;;;;;;;2.84;88.40;95762.88;5037994;28;20560;-78
2023/01/30 11:17:17;;;;;;;1.57;0.97;;;;;;;3.05;87.18;95746.13;5049441;28;20598;-78
2023/01/30 11:19:42;;;;;;;1.70;0.90;;;;;;;2.99;88.07;95743.13;5044838;28;20218;-77
2023/01/30 11:22:12;;;;;;;1.03;0.87;;;;;;;3.06;88.21;95740.09;5039263;28;20217;-77
2023/01/30 11:24:40;;;;;;;0.70;0.70;;;;;;;2.76;90.02;95750.53;5041967;28;20200;-77
2023/01/30 11:27:28;;;;;;;0.90;0.80;;;;;;;2.73;90.90;95732.75;5044234;28;20205;-77
2023/01/30 11:30:12;;;;;;;1.03;0.80;;;;;;;2.68;92.29;95739.09;5037893;28;20189;-76
2023/01/30 11:32:37;;;;;;;0.77;0.77;;;;;;;2.75;91.64;95737.81;5042468;28;20186;-76
2023/01/30 11:35:22;;;;;;;0.80;0.70;;;;;;;2.69;92.31;95743.31;5050933;28;20212;-77
2023/01/30 11:37:50;;;;;;;0.70;0.70;;;;;;;2.55;93.91;95747.53;5040786;28;20178;-77
2023/01/30 11:40:22;;;;;;;0.57;0.53;;;;;;;2.75;92.50;95742.94;5039825;28;20186;-77
2023/01/30 11:42:50;;;;;;;1.50;0.90;;;;;;;2.89;91.83;95721.53;5057565;28;20268;-78
2023/01/30 11:45:28;;;;;;;1.23;1.00;;;;;;;2.92;91.00;95729.06;5046108;28;20193;-77